Laguepe — 9HAI9 — position and weather

sailwx.info

Track history (hours):
 
Tides and Currents Weather Stations Pressure Air Temp Water Temp Dewpoint Dewpoint Depression Visibility Wind Speed Wind Dir Waves Ship Positions

Laguepe

Last reported at 2016-Jul-01 09:31 UTC. Time now 2016-Jul-01 10:05 UTC.
Position N 40°44' E 014°27'.

Length 81 m; draft 3.3 m.

Type: Cargo ship. MMSI: 256681000.

Date/timePositionNaut miles runAvg speedWind from/ knotsBaromVisibWave heightAir tempDewpointWater temp
2016-Jul-01 09:31N 40°44' E 014°27'0 0.0
2016-Jun-30 21:31N 40°44' E 014°27'0 0.0
2016-Jun-30 20:25N 40°44' E 014°27'0 0.0
2016-Jun-30 12:31N 40°44' E 014°27'0 0.0
2016-Jun-30 11:19N 40°44' E 014°27'0 0.0
2016-Jun-30 10:31N 40°44' E 014°27'11 1.4
2016-Jun-30 02:33N 40°41' E 014°13'7 7.2
2016-Jun-30 01:33N 40°39' E 014°04'7 6.7
2016-Jun-30 00:33N 40°38' E 013°55'6 6.4
2016-Jun-29 23:34N 40°39' E 013°47'6 6.3
2016-Jun-29 22:33N 40°43' E 013°40'7 6.7
2016-Jun-29 21:33N 40°48' E 013°34'7 6.7
2016-Jun-29 20:30N 40°52' E 013°27'14 7.0
2016-Jun-29 18:31N 41°00' E 013°12'22 6.7
2016-Jun-29 15:13N 41°13' E 012°48'5 6.7
2016-Jun-29 14:32N 41°16' E 012°43'7 7.3
2016-Jun-29 13:33N 41°20' E 012°35'8 7.1
2016-Jun-29 12:28N 41°25' E 012°27'14 7.2
2016-Jun-29 10:31N 41°33' E 012°11'74 7.5
2016-Jun-29 00:33N 42°15' E 010°50'17 7.1
2016-Jun-28 22:06N 42°25' E 010°30'22 7.4
2016-Jun-28 19:08N 42°40' E 010°08'4 7.4
2016-Jun-28 18:33N 42°42' E 010°03'7 7.4
2016-Jun-28 17:34N 42°46' E 009°55'7 7.0
2016-Jun-28 16:33N 42°51' E 009°47'8 7.7
2016-Jun-28 15:33N 42°55' E 009°39'8 7.9
2016-Jun-28 14:33N 43°00' E 009°31'7 7.3
2016-Jun-28 13:33N 43°04' E 009°22'8 8.0
2016-Jun-28 12:33N 43°03' E 009°11'8 7.9
2016-Jun-28 11:31N 43°03' E 008°60'9 8.1
2016-Jun-28 10:28N 43°02' E 008°48'7 8.0
2016-Jun-28 09:32N 43°02' E 008°38'9 9.2
2016-Jun-28 08:32N 43°01' E 008°25'9 9.1
2016-Jun-28 07:33N 43°01' E 008°13'9 8.8
2016-Jun-28 06:33N 43°01' E 008°01'17 8.5
2016-Jun-28 04:33N 42°57' E 007°38'9 8.7
2016-Jun-28 03:34N 42°54' E 007°27'27 8.9
2016-Jun-28 00:31N 42°48' E 006°51'8 8.6
2016-Jun-27 23:33N 42°47' E 006°40'82 8.2
2016-Jun-27 13:33N 43°21' E 004°58'  
Track history (hours):
 
Tides and Currents Weather Stations Pressure Air Temp Water Temp Dewpoint Dewpoint Depression Visibility Wind Speed Wind Dir Waves Ship Positions

Laguepe

Last reported at 2016-Jul-01 09:31 UTC. Time now 2016-Jul-01 10:05 UTC.
Position N 40°44' E 014°27'.

Length 81 m; draft 3.3 m.

Type: Cargo ship. MMSI: 256681000.

Date/timePositionNaut miles runAvg speedWind from/ knotsBaromVisibWave heightAir tempDewpointWater temp
2016-Jul-01 09:31N 40°44' E 014°27'0 0.0
2016-Jun-30 21:31N 40°44' E 014°27'0 0.0
2016-Jun-30 20:25N 40°44' E 014°27'0 0.0
2016-Jun-30 12:31N 40°44' E 014°27'0 0.0
2016-Jun-30 11:19N 40°44' E 014°27'0 0.0
2016-Jun-30 10:31N 40°44' E 014°27'11 1.4
2016-Jun-30 02:33N 40°41' E 014°13'7 7.2
2016-Jun-30 01:33N 40°39' E 014°04'7 6.7
2016-Jun-30 00:33N 40°38' E 013°55'6 6.4
2016-Jun-29 23:34N 40°39' E 013°47'6 6.3
2016-Jun-29 22:33N 40°43' E 013°40'7 6.7
2016-Jun-29 21:33N 40°48' E 013°34'7 6.7
2016-Jun-29 20:30N 40°52' E 013°27'14 7.0
2016-Jun-29 18:31N 41°00' E 013°12'22 6.7
2016-Jun-29 15:13N 41°13' E 012°48'5 6.7
2016-Jun-29 14:32N 41°16' E 012°43'7 7.3
2016-Jun-29 13:33N 41°20' E 012°35'8 7.1
2016-Jun-29 12:28N 41°25' E 012°27'14 7.2
2016-Jun-29 10:31N 41°33' E 012°11'74 7.5
2016-Jun-29 00:33N 42°15' E 010°50'17 7.1
2016-Jun-28 22:06N 42°25' E 010°30'22 7.4
2016-Jun-28 19:08N 42°40' E 010°08'4 7.4
2016-Jun-28 18:33N 42°42' E 010°03'7 7.4
2016-Jun-28 17:34N 42°46' E 009°55'7 7.0
2016-Jun-28 16:33N 42°51' E 009°47'8 7.7
2016-Jun-28 15:33N 42°55' E 009°39'8 7.9
2016-Jun-28 14:33N 43°00' E 009°31'7 7.3
2016-Jun-28 13:33N 43°04' E 009°22'8 8.0
2016-Jun-28 12:33N 43°03' E 009°11'8 7.9
2016-Jun-28 11:31N 43°03' E 008°60'9 8.1
2016-Jun-28 10:28N 43°02' E 008°48'7 8.0
2016-Jun-28 09:32N 43°02' E 008°38'9 9.2
2016-Jun-28 08:32N 43°01' E 008°25'9 9.1
2016-Jun-28 07:33N 43°01' E 008°13'9 8.8
2016-Jun-28 06:33N 43°01' E 008°01'17 8.5
2016-Jun-28 04:33N 42°57' E 007°38'9 8.7
2016-Jun-28 03:34N 42°54' E 007°27'27 8.9
2016-Jun-28 00:31N 42°48' E 006°51'8 8.6
2016-Jun-27 23:33N 42°47' E 006°40'82 8.2
2016-Jun-27 13:33N 43°21' E 004°58'  

Dump ship's entire track history